Time;durP1;ratioP1;P1;durP2;ratioP2;P2;SDS_P1;SDS_P2;PMS_P1;PMS_P2;Temp;Humidity;BMP_temperature;BMP_pressure;BME280_temperature;BME280_humidity;BME280_pressure;Samples;Min_cycle;Max_cycle;Signal;HPM_P1;HPM_P2
2022/07/08 00:01:43;;;;;;;9.30;2.55;;;;;;;13.92;69.74;100580.41;5121763;28;20043;-56
2022/07/08 00:04:09;;;;;;;13.15;2.55;;;;;;;13.84;69.54;100580.75;5121770;28;20490;-57
2022/07/08 00:06:34;;;;;;;8.85;2.60;;;;;;;13.90;69.60;100579.00;5110714;28;20024;-57
2022/07/08 00:09:00;;;;;;;11.70;2.47;;;;;;;13.78;70.00;100576.28;5112510;28;20076;-57
2022/07/08 00:11:25;;;;;;;8.57;2.55;;;;;;;13.80;69.64;100579.56;5095645;27;20030;-57
2022/07/08 00:13:51;;;;;;;9.75;2.67;;;;;;;13.80;69.37;100587.63;5105365;27;20030;-56
2022/07/08 00:16:16;;;;;;;11.43;2.75;;;;;;;13.79;69.38;100594.09;5113987;27;20028;-57
2022/07/08 00:18:41;;;;;;;13.80;2.55;;;;;;;13.97;68.74;100585.09;5104274;27;20030;-56
2022/07/08 00:21:07;;;;;;;8.93;2.28;;;;;;;13.86;69.00;100588.59;5102908;27;20390;-58
2022/07/08 00:23:32;;;;;;;7.50;2.40;;;;;;;13.88;68.90;100587.31;5121383;27;20050;-57
2022/07/08 00:25:58;;;;;;;14.05;2.60;;;;;;;13.88;68.98;100592.72;5119805;27;20024;-57
2022/07/08 00:28:23;;;;;;;8.98;2.80;;;;;;;13.83;69.44;100595.28;5100032;27;20326;-58
2022/07/08 00:30:49;;;;;;;8.88;2.60;;;;;;;13.86;69.52;100596.69;5121114;27;20076;-57
2022/07/08 00:33:14;;;;;;;12.57;2.75;;;;;;;13.76;70.28;100594.56;5117796;27;20020;-58
2022/07/08 00:35:39;;;;;;;8.70;2.30;;;;;;;13.76;70.40;100599.94;5122382;27;20088;-58
2022/07/08 00:38:05;;;;;;;12.85;2.78;;;;;;;13.71;70.75;100595.25;5121676;27;20026;-57
2022/07/08 00:40:31;;;;;;;13.07;3.10;;;;;;;13.51;70.87;100595.53;5118589;27;20030;-57
2022/07/08 00:42:56;;;;;;;11.10;2.45;;;;;;;13.65;70.68;100596.13;5114841;27;20617;-56
2022/07/08 00:45:21;;;;;;;9.55;2.78;;;;;;;13.65;70.62;100598.84;5101472;27;20027;-56
2022/07/08 00:47:47;;;;;;;10.77;2.60;;;;;;;13.54;70.96;100592.38;5102306;28;20039;-57
2022/07/08 00:50:12;;;;;;;10.02;2.60;;;;;;;13.54;71.05;100584.28;5124141;27;20467;-57
2022/07/08 00:52:38;;;;;;;14.13;2.80;;;;;;;13.58;70.66;100582.78;5119631;27;20133;-57
2022/07/08 00:55:04;;;;;;;10.98;2.38;;;;;;;13.63;71.28;100589.34;5117836;27;20031;-57
2022/07/08 00:57:29;;;;;;;12.55;2.60;;;;;;;13.55;70.85;100582.41;5085098;27;20051;-57
2022/07/08 00:59:55;;;;;;;11.23;2.70;;;;;;;13.58;70.19;100593.56;5101599;27;20038;-57
2022/07/08 01:02:20;;;;;;;6.50;2.25;;;;;;;13.49;70.46;100586.84;5098345;27;20039;-56
2022/07/08 01:04:47;;;;;;;12.35;2.67;;;;;;;13.55;70.70;100588.63;5122634;27;20054;-56
2022/07/08 01:07:12;;;;;;;13.05;3.55;;;;;;;13.59;70.69;100592.50;5113070;27;20023;-57
2022/07/08 01:09:38;;;;;;;12.82;3.22;;;;;;;13.63;70.47;100589.34;5096886;28;20097;-56
2022/07/08 01:12:04;;;;;;;12.32;2.60;;;;;;;13.59;70.50;100578.22;5116953;27;20070;-56
2022/07/08 01:14:29;;;;;;;9.60;2.60;;;;;;;13.52;71.04;100594.47;5101856;28;20369;-56
2022/07/08 01:16:55;;;;;;;9.63;2.60;;;;;;;13.39;71.26;100589.25;5119731;27;20035;-56
2022/07/08 01:19:20;;;;;;;8.60;2.45;;;;;;;13.55;71.11;100599.41;5123018;27;20030;-57
2022/07/08 01:21:46;;;;;;;13.35;2.50;;;;;;;13.36;71.91;100589.72;5119995;27;20027;-56
2022/07/08 01:24:11;;;;;;;9.38;2.42;;;;;;;13.37;71.97;100597.56;5114461;27;20031;-56
2022/07/08 01:26:37;;;;;;;6.75;2.33;;;;;;;13.22;72.06;100594.41;5122445;27;20104;-57
2022/07/08 01:29:02;;;;;;;11.93;2.80;;;;;;;13.13;72.61;100602.00;5120500;27;20027;-57
2022/07/08 01:31:28;;;;;;;11.45;2.67;;;;;;;13.17;72.53;100603.16;5121589;27;20035;-58
2022/07/08 01:33:53;;;;;;;15.05;2.63;;;;;;;13.14;72.86;100608.19;5122254;27;20027;-56
2022/07/08 01:36:18;;;;;;;13.75;2.40;;;;;;;13.06;73.16;100606.63;5119385;27;20020;-58
2022/07/08 01:38:44;;;;;;;9.27;2.38;;;;;;;13.06;72.97;100605.81;5112392;27;20024;-58
2022/07/08 01:41:09;;;;;;;13.93;2.65;;;;;;;12.83;73.59;100603.78;5122790;27;20016;-57
2022/07/08 01:43:35;;;;;;;12.50;2.45;;;;;;;12.94;73.45;100609.25;5112608;27;20323;-57
2022/07/08 01:46:00;;;;;;;11.23;2.67;;;;;;;12.86;73.87;100604.16;5122239;27;20019;-56
2022/07/08 01:48:25;;;;;;;16.05;2.85;;;;;;;12.97;73.76;100610.66;5119179;27;20023;-57
2022/07/08 01:50:51;;;;;;;8.10;2.90;;;;;;;12.99;73.51;100608.56;5119469;27;20027;-57
2022/07/08 01:53:16;;;;;;;11.50;2.70;;;;;;;12.95;73.72;100604.66;5122030;27;20453;-56
2022/07/08 01:55:42;;;;;;;14.00;2.55;;;;;;;13.10;73.10;100612.38;5122488;27;20031;-57
2022/07/08 01:58:07;;;;;;;15.57;2.67;;;;;;;13.15;72.99;100604.44;5115596;27;20027;-56
2022/07/08 02:00:33;;;;;;;12.45;2.78;;;;;;;13.22;72.71;100612.44;5100369;27;20030;-58
2022/07/08 02:02:58;;;;;;;8.73;2.65;;;;;;;13.33;73.62;100611.72;5118065;27;20050;-58
2022/07/08 02:05:26;;;;;;;9.70;2.65;;;;;;;13.03;73.35;100615.16;5122024;27;20028;-58
2022/07/08 02:07:51;;;;;;;9.63;2.40;;;;;;;13.00;73.82;100615.59;5112173;27;20023;-57
2022/07/08 02:10:16;;;;;;;10.35;2.58;;;;;;;12.93;74.45;100620.25;5121594;27;20490;-58
2022/07/08 02:12:42;;;;;;;7.60;2.35;;;;;;;12.86;74.28;100617.63;5110904;27;20032;-57
2022/07/08 02:15:08;;;;;;;13.95;3.00;;;;;;;12.80;74.82;100617.69;5119893;27;20034;-58
2022/07/08 02:17:41;;;;;;;11.63;2.63;;;;;;;12.73;74.98;100617.75;5116604;27;20027;-58
2022/07/08 02:20:08;;;;;;;10.00;2.67;;;;;;;12.54;75.51;100630.34;5111638;27;20023;-57
2022/07/08 02:22:33;;;;;;;16.52;2.75;;;;;;;12.54;76.03;100627.66;5114412;27;20110;-56
2022/07/08 02:24:59;;;;;;;13.00;2.67;;;;;;;12.50;76.07;100634.50;5116144;27;20148;-57
2022/07/08 02:27:24;;;;;;;14.68;2.90;;;;;;;12.68;75.73;100631.88;5099041;27;20089;-58
2022/07/08 02:29:50;;;;;;;11.98;2.50;;;;;;;12.71;75.41;100630.59;5126240;27;20042;-58
2022/07/08 02:32:15;;;;;;;16.92;2.90;;;;;;;12.66;75.68;100631.28;5119794;27;20022;-56
2022/07/08 02:34:41;;;;;;;11.13;2.80;;;;;;;12.57;75.88;100635.28;5114594;27;20420;-57
2022/07/08 02:37:06;;;;;;;13.60;3.15;;;;;;;12.54;76.11;100635.72;5118503;27;20031;-57
2022/07/08 02:39:32;;;;;;;12.98;3.17;;;;;;;12.54;76.32;100633.03;5114560;27;20024;-56
2022/07/08 02:41:57;;;;;;;11.88;2.80;;;;;;;12.66;75.54;100628.59;5114893;27;20023;-56
2022/07/08 02:44:23;;;;;;;8.63;2.63;;;;;;;12.68;76.19;100631.88;5111455;27;20031;-56
2022/07/08 02:46:48;;;;;;;10.38;2.67;;;;;;;12.68;75.95;100642.63;5100434;27;20402;-56
2022/07/08 02:49:13;;;;;;;11.18;2.67;;;;;;;12.61;76.38;100631.13;5110522;27;20479;-56
2022/07/08 02:51:39;;;;;;;11.27;2.90;;;;;;;12.60;75.78;100634.00;5114400;27;20109;-57
2022/07/08 02:54:05;;;;;;;9.20;2.88;;;;;;;12.45;76.75;100643.22;5115614;27;20461;-56
2022/07/08 02:56:33;;;;;;;6.88;2.60;;;;;;;12.50;76.76;100645.28;5118358;27;20019;-56
2022/07/08 02:58:59;;;;;;;10.77;2.95;;;;;;;12.49;76.19;100643.63;5090304;28;20020;-56
2022/07/08 03:01:25;;;;;;;6.88;2.55;;;;;;;12.56;77.28;100641.72;5119851;28;20390;-55
2022/07/08 03:03:50;;;;;;;13.70;3.38;;;;;;;12.62;75.52;100640.81;5095622;28;20027;-56
2022/07/08 03:06:16;;;;;;;10.13;2.78;;;;;;;12.47;76.05;100634.97;5120298;28;20358;-54
2022/07/08 03:08:41;;;;;;;10.00;3.10;;;;;;;12.41;76.20;100631.28;5098808;28;20027;-56
2022/07/08 03:11:06;;;;;;;9.15;2.80;;;;;;;12.41;76.00;100627.78;5117131;28;20035;-56
2022/07/08 03:13:32;;;;;;;8.82;3.03;;;;;;;12.48;76.17;100634.75;5122753;28;20023;-57
2022/07/08 03:15:58;;;;;;;9.15;2.90;;;;;;;12.46;75.78;100628.75;5121350;28;20027;-57
2022/07/08 03:18:24;;;;;;;12.00;2.50;;;;;;;12.51;75.34;100625.41;5119005;28;20068;-57
2022/07/08 03:20:49;;;;;;;8.00;2.42;;;;;;;12.48;75.55;100634.75;5122645;28;20084;-56
2022/07/08 03:23:15;;;;;;;11.27;2.53;;;;;;;12.47;75.76;100634.97;5118656;28;20416;-56
2022/07/08 03:25:40;;;;;;;9.77;2.85;;;;;;;12.49;75.76;100640.94;5119744;28;20023;-57
2022/07/08 03:28:05;;;;;;;8.82;2.50;;;;;;;12.55;75.25;100631.97;5098386;28;20023;-57
2022/07/08 03:30:31;;;;;;;17.52;2.75;;;;;;;12.51;75.69;100633.50;5117957;28;20023;-56
2022/07/08 03:32:56;;;;;;;11.23;2.80;;;;;;;12.58;75.49;100634.25;5102396;28;20469;-56
2022/07/08 03:35:22;;;;;;;7.40;2.85;;;;;;;12.75;75.16;100634.47;5119574;28;20032;-58
2022/07/08 03:37:47;;;;;;;7.07;2.85;;;;;;;12.57;75.70;100639.84;5117708;28;20027;-56
2022/07/08 03:42:57;;;;;;;9.13;2.67;;;;;;;12.87;74.47;100635.41;5113958;28;20033;-56
2022/07/08 03:45:22;;;;;;;6.95;2.45;;;;;;;12.87;74.78;100639.97;5120490;28;20011;-57
2022/07/08 03:47:48;;;;;;;8.02;2.72;;;;;;;13.77;72.78;100650.06;5123061;27;20049;-56
2022/07/08 03:50:13;;;;;;;12.32;2.92;;;;;;;14.63;68.75;100647.94;5100396;28;20053;-57
2022/07/08 03:52:39;;;;;;;10.40;2.88;;;;;;;14.96;66.88;100646.50;5121763;27;20022;-57
2022/07/08 03:55:05;;;;;;;8.10;2.83;;;;;;;15.16;66.62;100657.75;5100771;27;20081;-56
2022/07/08 03:57:30;;;;;;;6.65;2.40;;;;;;;15.17;65.76;100655.84;5122224;27;20028;-56
2022/07/08 03:59:56;;;;;;;10.68;2.58;;;;;;;15.47;65.36;100650.25;5120090;27;20478;-56
2022/07/08 04:02:21;;;;;;;10.35;2.75;;;;;;;14.70;67.28;100656.72;5124039;27;20039;-57
2022/07/08 04:04:46;;;;;;;13.52;2.80;;;;;;;14.21;70.68;100661.47;5118017;27;20035;-56
2022/07/08 04:07:12;;;;;;;8.48;2.47;;;;;;;14.26;70.21;100668.88;5120768;27;20044;-57
2022/07/08 04:09:38;;;;;;;7.75;2.40;;;;;;;14.05;71.27;100662.94;5120355;27;20019;-56
2022/07/08 04:12:03;;;;;;;12.23;2.90;;;;;;;14.33;70.60;100675.78;5117765;27;20034;-57
2022/07/08 04:14:29;;;;;;;11.02;3.40;;;;;;;14.37;70.26;100670.75;5121375;27;20028;-57
2022/07/08 04:16:54;;;;;;;12.38;3.00;;;;;;;14.59;69.89;100665.66;5118840;27;20077;-56
2022/07/08 04:19:20;;;;;;;11.27;2.60;;;;;;;14.39;70.30;100680.25;5119805;27;20038;-56
2022/07/08 04:21:45;;;;;;;8.95;2.92;;;;;;;13.93;71.93;100681.78;5122325;27;20053;-56
2022/07/08 04:24:10;;;;;;;11.23;2.53;;;;;;;13.83;72.97;100676.13;5115161;27;20035;-57
2022/07/08 04:26:36;;;;;;;18.77;3.08;;;;;;;13.55;74.94;100680.22;5121442;27;20031;-59
2022/07/08 04:29:01;;;;;;;11.05;2.47;;;;;;;13.91;73.90;100678.50;5119848;27;20408;-56
2022/07/08 04:31:27;;;;;;;11.43;2.75;;;;;;;13.93;73.28;100675.56;5119467;27;20027;-58
2022/07/08 04:33:53;;;;;;;18.33;3.13;;;;;;;13.77;74.10;100682.41;5123171;27;20030;-55
2022/07/08 04:36:20;;;;;;;11.02;2.95;;;;;;;13.76;74.66;100683.47;5120803;27;20027;-59
2022/07/08 04:38:45;;;;;;;8.55;2.90;;;;;;;13.57;75.53;100686.19;5125956;27;20035;-57
2022/07/08 04:41:11;;;;;;;9.88;2.97;;;;;;;13.64;75.02;100687.97;5122186;27;20076;-56
2022/07/08 04:43:36;;;;;;;12.25;3.10;;;;;;;13.46;75.97;100688.84;5119545;27;20032;-56
2022/07/08 04:46:01;;;;;;;9.48;4.13;;;;;;;13.82;75.16;100690.63;5122890;27;20027;-55
2022/07/08 04:48:27;;;;;;;16.67;2.97;;;;;;;13.71;75.48;100688.72;5121203;27;20077;-59
2022/07/08 04:50:52;;;;;;;13.98;3.20;;;;;;;13.62;75.61;100696.28;5118802;27;20023;-56
2022/07/08 04:53:18;;;;;;;12.55;2.95;;;;;;;13.90;75.66;100705.66;5125008;27;20027;-56
2022/07/08 04:55:43;;;;;;;20.00;3.72;;;;;;;13.72;75.74;100706.53;5097802;27;20027;-55
2022/07/08 04:58:08;;;;;;;12.13;3.10;;;;;;;14.25;74.20;100708.47;5121276;27;20034;-56
2022/07/08 05:00:34;;;;;;;10.02;3.00;;;;;;;14.31;73.35;100704.88;5127377;27;20027;-55
2022/07/08 05:02:59;;;;;;;17.85;3.38;;;;;;;14.24;73.99;100715.75;5119024;27;20395;-55
2022/07/08 05:05:26;;;;;;;15.25;3.05;;;;;;;14.21;73.81;100715.38;5125770;27;20039;-56
2022/07/08 05:07:51;;;;;;;14.95;3.45;;;;;;;14.50;73.29;100712.88;5120429;27;20019;-56
2022/07/08 05:10:17;;;;;;;9.88;3.10;;;;;;;14.86;71.48;100712.69;5123487;27;20143;-55
2022/07/08 05:12:43;;;;;;;14.02;3.70;;;;;;;15.03;71.31;100714.72;5118874;27;20027;-56
2022/07/08 05:15:09;;;;;;;17.95;3.53;;;;;;;14.83;71.59;100721.28;5120193;27;20534;-56
2022/07/08 05:17:35;;;;;;;14.77;3.35;;;;;;;14.77;71.51;100722.19;5116200;27;20044;-55
2022/07/08 05:20:00;;;;;;;17.23;3.88;;;;;;;14.66;72.53;100717.63;5101008;27;20027;-55
2022/07/08 05:22:26;;;;;;;16.77;3.33;;;;;;;14.90;70.95;100718.44;5120127;27;20036;-57
2022/07/08 05:24:51;;;;;;;29.30;3.53;;;;;;;14.60;71.22;100722.09;5118538;27;20027;-56
2022/07/08 05:27:16;;;;;;;20.52;3.30;;;;;;;14.36;72.45;100723.88;5100947;27;20442;-56
2022/07/08 05:29:42;;;;;;;18.02;3.50;;;;;;;14.53;71.49;100728.63;5121342;27;20037;-57
2022/07/08 05:32:07;;;;;;;18.42;3.80;;;;;;;14.51;71.71;100733.41;5120131;27;20027;-58
2022/07/08 05:34:33;;;;;;;19.02;4.03;;;;;;;14.43;71.32;100729.19;5117895;27;20023;-58
2022/07/08 05:36:58;;;;;;;14.50;3.72;;;;;;;14.67;70.55;100736.25;5119747;27;20015;-58
2022/07/08 05:39:24;;;;;;;17.67;3.33;;;;;;;14.51;70.99;100731.53;5118041;27;20393;-58
2022/07/08 05:41:51;;;;;;;12.77;3.08;;;;;;;14.82;70.35;100738.50;5121194;27;20027;-57
2022/07/08 05:44:17;;;;;;;16.25;3.85;;;;;;;14.44;71.25;100742.41;5105641;27;20076;-58
2022/07/08 05:46:43;;;;;;;15.38;3.40;;;;;;;14.63;71.02;100742.38;5118622;27;20019;-57
2022/07/08 05:49:08;;;;;;;13.23;3.10;;;;;;;14.82;70.79;100738.50;5100133;28;20034;-58
2022/07/08 05:51:34;;;;;;;15.85;3.55;;;;;;;14.57;70.21;100737.91;5122994;27;20023;-57
2022/07/08 05:53:59;;;;;;;21.67;3.72;;;;;;;14.66;68.97;100744.59;5105531;27;20481;-58
2022/07/08 05:56:25;;;;;;;12.52;3.20;;;;;;;14.73;68.59;100745.31;5116784;27;20508;-58
2022/07/08 05:58:50;;;;;;;14.30;3.53;;;;;;;14.77;67.88;100751.88;5116657;27;20489;-57
2022/07/08 06:01:16;;;;;;;18.55;4.07;;;;;;;15.12;68.19;100751.06;5095736;27;20035;-58
2022/07/08 06:03:41;;;;;;;23.25;3.80;;;;;;;15.32;66.89;100761.50;5112666;27;20039;-57
2022/07/08 06:06:06;;;;;;;13.10;3.35;;;;;;;15.25;66.95;100761.66;5117668;27;20032;-58
2022/07/08 06:08:32;;;;;;;13.57;3.85;;;;;;;14.88;67.16;100769.97;5100875;28;20024;-58
2022/07/08 06:10:58;;;;;;;19.70;3.92;;;;;;;15.24;65.41;100765.41;5112587;27;20431;-58
2022/07/08 06:13:24;;;;;;;10.63;3.40;;;;;;;15.24;65.43;100770.00;5122582;27;20023;-58
2022/07/08 06:15:49;;;;;;;12.55;3.47;;;;;;;15.44;65.03;100778.53;5108172;27;20103;-58
2022/07/08 06:18:15;;;;;;;14.75;3.80;;;;;;;15.45;64.76;100772.09;5101032;27;20035;-57
2022/07/08 06:20:40;;;;;;;11.50;3.30;;;;;;;15.52;64.55;100774.66;5100439;27;20031;-55
2022/07/08 06:23:05;;;;;;;13.98;3.50;;;;;;;15.78;63.70;100767.13;5099452;28;20024;-57
2022/07/08 06:25:31;;;;;;;12.30;3.13;;;;;;;16.06;62.41;100774.44;5097335;27;20031;-58
2022/07/08 06:27:56;;;;;;;13.02;3.80;;;;;;;16.33;62.11;100770.09;5120412;27;20019;-58
2022/07/08 06:30:22;;;;;;;10.77;4.00;;;;;;;15.88;63.62;100780.84;5103427;27;20135;-57
2022/07/08 06:32:47;;;;;;;11.40;3.85;;;;;;;15.88;63.92;100778.16;5114831;27;20039;-57
2022/07/08 06:35:13;;;;;;;11.15;3.80;;;;;;;16.01;63.54;100788.66;5116974;27;20469;-57
2022/07/08 06:37:38;;;;;;;20.00;3.95;;;;;;;16.08;62.91;100783.94;5118576;27;20015;-57
2022/07/08 06:40:05;;;;;;;16.23;6.13;;;;;;;15.04;63.16;100789.25;5116097;27;20024;-57
2022/07/08 06:42:30;;;;;;;16.25;6.07;;;;;;;15.77;61.51;100785.22;5116260;27;20313;-57
2022/07/08 06:44:56;;;;;;;16.58;6.45;;;;;;;15.94;61.26;100788.00;5118551;27;20088;-57
2022/07/08 06:47:22;;;;;;;17.65;6.43;;;;;;;16.85;59.25;100787.22;5118623;27;20031;-57
2022/07/08 06:49:49;;;;;;;17.92;8.25;;;;;;;16.16;58.74;100794.38;5123312;27;20591;-56
2022/07/08 06:52:14;;;;;;;15.48;7.55;;;;;;;15.28;60.33;100790.91;5120158;27;20027;-56
2022/07/08 06:54:39;;;;;;;11.95;7.50;;;;;;;15.54;61.15;100794.16;5116272;28;20028;-56
2022/07/08 06:57:07;;;;;;;16.55;6.93;;;;;;;16.09;60.87;100787.47;5120093;27;20035;-55
2022/07/08 06:59:33;;;;;;;13.70;8.13;;;;;;;15.96;59.99;100797.50;5120198;27;20019;-56
2022/07/08 07:01:59;;;;;;;14.82;8.50;;;;;;;16.09;58.99;100785.59;5116646;27;20444;-57
2022/07/08 07:04:26;;;;;;;20.50;10.10;;;;;;;16.60;57.29;100781.13;5121694;27;20027;-56
2022/07/08 07:06:52;;;;;;;21.90;8.90;;;;;;;20.50;46.72;100788.34;5116143;27;20027;-57
2022/07/08 07:09:17;;;;;;;17.35;8.13;;;;;;;18.45;51.98;100786.34;5116228;28;20023;-56
2022/07/08 07:11:42;;;;;;;14.52;7.05;;;;;;;18.29;52.21;100783.47;5121081;28;20523;-56
2022/07/08 07:14:08;;;;;;;15.90;7.90;;;;;;;17.50;53.01;100783.03;5119991;28;20061;-57
2022/07/08 07:16:33;;;;;;;16.20;8.65;;;;;;;16.57;56.13;100787.03;5116910;28;20053;-57
2022/07/08 07:18:59;;;;;;;17.63;8.52;;;;;;;16.47;57.09;100786.81;5090908;28;20028;-57
2022/07/08 07:21:24;;;;;;;17.58;8.05;;;;;;;17.35;54.78;100781.78;5100185;28;20028;-56
2022/07/08 07:23:49;;;;;;;19.75;8.85;;;;;;;17.84;52.53;100783.78;5110583;27;20034;-57
2022/07/08 07:26:15;;;;;;;17.05;8.35;;;;;;;18.70;51.12;100785.75;5123367;27;20035;-57
2022/07/08 07:28:40;;;;;;;16.75;9.13;;;;;;;19.73;48.98;100796.28;5121385;27;20030;-57
2022/07/08 07:31:06;;;;;;;22.50;9.43;;;;;;;21.36;45.55;100791.31;5122094;27;20032;-57
2022/07/08 07:33:32;;;;;;;18.45;8.65;;;;;;;19.42;49.29;100797.16;5124355;27;20080;-56
2022/07/08 07:35:57;;;;;;;14.65;9.02;;;;;;;18.67;50.33;100794.41;5114408;27;20573;-57
2022/07/08 07:38:22;;;;;;;16.85;8.50;;;;;;;18.90;50.44;100785.16;5122146;27;20050;-57
2022/07/08 07:40:48;;;;;;;16.85;8.82;;;;;;;18.45;51.65;100789.06;5119637;27;20023;-56
2022/07/08 07:43:13;;;;;;;19.00;8.57;;;;;;;19.86;48.46;100794.16;5119848;27;20358;-56
2022/07/08 07:45:39;;;;;;;16.23;9.05;;;;;;;20.81;45.71;100786.47;5119932;27;20574;-56
2022/07/08 07:48:04;;;;;;;13.93;9.48;;;;;;;21.35;45.15;100792.41;5117482;27;20039;-56
2022/07/08 07:50:30;;;;;;;14.65;8.85;;;;;;;22.75;41.80;100795.84;5117417;27;20026;-57
2022/07/08 07:52:55;;;;;;;25.80;9.85;;;;;;;21.51;43.74;100792.09;5101296;27;20059;-57
2022/07/08 07:55:21;;;;;;;15.70;8.07;;;;;;;23.31;41.04;100796.44;5124138;27;20366;-55
2022/07/08 07:57:48;;;;;;;15.45;8.20;;;;;;;22.07;42.42;100790.25;5099115;28;20084;-56
2022/07/08 08:00:15;;;;;;;17.23;7.72;;;;;;;21.55;43.55;100795.13;5102454;28;20030;-57
2022/07/08 08:02:41;;;;;;;12.05;6.45;;;;;;;22.08;43.44;100803.63;5099665;27;20086;-57
2022/07/08 08:05:06;;;;;;;16.77;6.50;;;;;;;21.42;44.64;100801.16;5121949;27;20114;-57
2022/07/08 08:07:32;;;;;;;13.77;6.50;;;;;;;20.79;45.90;100801.44;5118818;27;20023;-57
2022/07/08 08:09:57;;;;;;;12.95;5.97;;;;;;;20.75;45.52;100806.63;5114450;27;20028;-57
2022/07/08 08:12:23;;;;;;;14.35;5.63;;;;;;;19.79;47.88;100806.13;5118183;27;20281;-57
2022/07/08 08:14:48;;;;;;;20.75;5.60;;;;;;;18.73;50.71;100815.94;5123528;27;20250;-56
2022/07/08 08:17:14;;;;;;;12.77;5.78;;;;;;;18.86;50.58;100811.19;5121132;27;20024;-57
2022/07/08 08:19:39;;;;;;;13.85;5.10;;;;;;;19.15;50.15;100817.94;5121951;27;20401;-57
2022/07/08 08:22:04;;;;;;;13.05;5.20;;;;;;;19.25;49.43;100819.09;5118627;27;20469;-57
2022/07/08 08:24:30;;;;;;;13.80;5.10;;;;;;;19.47;49.70;100819.78;5117801;27;20441;-57
2022/07/08 08:26:55;;;;;;;15.55;5.47;;;;;;;19.12;49.72;100826.63;5116368;27;20023;-57
2022/07/08 08:29:21;;;;;;;16.77;6.25;;;;;;;19.54;49.81;100828.50;5102362;28;20034;-56
2022/07/08 08:31:46;;;;;;;16.73;5.30;;;;;;;19.05;49.88;100819.78;5116678;27;20028;-56
2022/07/08 08:34:11;;;;;;;20.27;5.00;;;;;;;18.98;50.59;100825.41;5112790;27;20039;-57
2022/07/08 08:36:37;;;;;;;14.55;5.13;;;;;;;19.45;50.52;100830.09;5119560;27;20497;-58
2022/07/08 08:39:02;;;;;;;15.27;5.20;;;;;;;21.45;45.46;100827.88;5125098;27;20051;-56
2022/07/08 08:41:28;;;;;;;15.02;5.53;;;;;;;20.86;46.21;100821.88;5122985;27;20015;-56
2022/07/08 08:43:53;;;;;;;25.90;5.78;;;;;;;24.57;39.68;100825.28;5121698;27;20061;-57
2022/07/08 08:46:22;;;;;;;12.75;4.68;;;;;;;24.45;39.86;100830.38;5077474;28;20023;-57
2022/07/08 08:48:48;;;;;;;16.98;3.90;;;;;;;22.28;42.22;100821.03;5104127;28;20024;-56
2022/07/08 08:51:13;;;;;;;11.77;4.30;;;;;;;24.51;38.99;100829.22;5090077;28;20031;-56
2022/07/08 08:53:47;;;;;;;11.80;4.30;;;;;;;24.64;38.80;100817.50;5121519;27;20023;-57
2022/07/08 08:56:14;;;;;;;13.02;4.97;;;;;;;22.83;41.90;100813.53;5120661;27;20370;-57
2022/07/08 08:58:41;;;;;;;18.27;4.78;;;;;;;21.11;45.58;100817.50;5118642;27;20027;-57
2022/07/08 09:01:09;;;;;;;17.98;6.35;;;;;;;20.64;45.66;100816.72;5121028;27;20015;-57
2022/07/08 09:03:35;;;;;;;19.08;5.35;;;;;;;19.91;49.16;100815.94;5118149;27;20029;-56
2022/07/08 09:06:01;;;;;;;19.90;6.25;;;;;;;20.66;48.73;100809.06;5118678;27;20036;-57
2022/07/08 09:08:26;;;;;;;20.33;6.13;;;;;;;22.25;45.63;100813.41;5122128;27;20500;-57
2022/07/08 09:10:52;;;;;;;16.45;6.05;;;;;;;21.73;46.88;100808.13;5116359;27;20035;-57
2022/07/08 09:13:19;;;;;;;15.80;6.32;;;;;;;21.34;48.29;100810.66;5122187;27;20038;-56
2022/07/08 09:15:46;;;;;;;20.77;6.65;;;;;;;23.16;43.55;100811.09;5118105;27;20028;-56
2022/07/08 09:18:15;;;;;;;22.50;6.47;;;;;;;23.80;41.23;100807.13;5098035;27;20357;-57
2022/07/08 09:20:45;;;;;;;;;;;;;;;21.91;44.98;100805.88;5116307;27;20020;-57
2022/07/08 09:23:12;;;;;;;14.55;5.68;;;;;;;21.87;43.71;100802.09;5114636;27;20358;-57
2022/07/08 09:25:37;;;;;;;19.42;5.32;;;;;;;24.14;40.86;100813.53;5121210;27;20106;-56
2022/07/08 09:28:03;;;;;;;13.93;5.45;;;;;;;24.31;39.80;100808.38;5099622;28;20477;-56
2022/07/08 09:30:30;;;;;;;18.75;6.45;;;;;;;24.77;38.96;100810.44;5117197;27;20031;-57
2022/07/08 09:32:59;;;;;;;15.43;6.30;;;;;;;23.11;40.78;100809.22;5118218;27;20028;-57
2022/07/08 09:35:35;;;;;;;18.80;7.07;;;;;;;21.98;44.04;100809.94;5119494;27;20026;-57
2022/07/08 09:38:02;;;;;;;15.45;8.35;;;;;;;21.56;45.12;100807.66;5118812;27;20031;-56
2022/07/08 09:40:27;;;;;;;25.52;7.60;;;;;;;20.58;48.18;100816.97;5123756;27;20484;-57
2022/07/08 09:42:52;;;;;;;15.02;7.43;;;;;;;20.64;47.20;100813.16;5101288;28;20043;-57
2022/07/08 09:45:18;;;;;;;20.25;8.18;;;;;;;22.80;44.12;100811.38;5122421;27;20035;-57
2022/07/08 09:47:43;;;;;;;16.60;7.22;;;;;;;24.18;41.33;100811.84;5103688;27;20038;-57
2022/07/08 09:50:09;;;;;;;25.33;8.98;;;;;;;23.54;41.22;100800.28;5122122;27;20028;-57
2022/07/08 09:52:34;;;;;;;16.85;7.82;;;;;;;23.42;42.26;100808.94;5100822;27;20432;-56
2022/07/08 09:55:03;;;;;;;16.60;7.28;;;;;;;22.12;43.46;100801.97;5115858;27;20431;-57
2022/07/08 09:57:29;;;;;;;16.58;7.43;;;;;;;21.60;44.67;100797.81;5116026;27;20028;-57
2022/07/08 09:59:55;;;;;;;17.60;7.57;;;;;;;23.80;41.17;100807.13;5111181;27;20027;-58
2022/07/08 10:02:20;;;;;;;16.67;7.10;;;;;;;23.63;40.86;100809.50;5123937;27;20035;-57
2022/07/08 10:04:47;;;;;;;16.83;6.85;;;;;;;23.83;40.29;100806.53;5119540;27;20458;-53
2022/07/08 10:07:12;;;;;;;15.02;7.05;;;;;;;24.00;38.92;100808.00;5097648;27;20032;-54
2022/07/08 10:09:38;;;;;;;14.02;7.38;;;;;;;24.40;38.54;100803.84;5105391;27;20023;-57
2022/07/08 10:12:04;;;;;;;19.02;7.80;;;;;;;24.02;37.90;100800.31;5121901;27;20023;-55
2022/07/08 10:14:29;;;;;;;20.08;7.68;;;;;;;23.23;41.36;100803.34;5088707;27;20078;-55
2022/07/08 10:16:54;;;;;;;14.25;7.38;;;;;;;23.70;40.43;100804.50;5086975;27;20034;-57
2022/07/08 10:19:26;;;;;;;12.98;7.53;;;;;;;24.01;39.10;100798.66;5091160;27;20027;-57
2022/07/08 10:21:52;;;;;;;14.05;7.40;;;;;;;24.48;37.66;100810.63;5074000;28;20034;-57
2022/07/08 10:24:22;;;;;;;19.27;7.93;;;;;;;24.86;37.05;100796.84;5090684;27;20050;-57
2022/07/08 10:26:47;;;;;;;22.15;7.68;;;;;;;24.40;37.26;100805.78;5122544;27;20076;-57
2022/07/08 10:29:13;;;;;;;24.10;8.00;;;;;;;23.12;39.68;100793.66;5115073;27;20474;-57
2022/07/08 10:31:46;;;;;;;20.42;8.45;;;;;;;23.65;39.47;100805.38;5100165;27;20386;-57
2022/07/08 10:34:12;;;;;;;26.23;8.75;;;;;;;24.29;37.67;100805.94;5082725;28;20419;-57
2022/07/08 10:36:46;;;;;;;15.85;8.40;;;;;;;23.90;38.51;100797.97;5114976;27;20019;-57
2022/07/08 10:39:14;;;;;;;18.88;8.43;;;;;;;23.48;39.61;100786.66;5102585;27;20019;-57
2022/07/08 10:41:40;;;;;;;17.85;8.18;;;;;;;22.16;41.14;100792.09;5097210;28;20426;-57
2022/07/08 10:44:07;;;;;;;15.75;8.10;;;;;;;22.84;41.00;100787.84;5120107;27;20027;-56
2022/07/08 10:46:32;;;;;;;17.67;8.35;;;;;;;23.01;40.90;100793.75;5119782;27;20027;-56
2022/07/08 10:48:59;;;;;;;19.60;8.00;;;;;;;22.92;39.78;100775.47;5117023;27;20084;-56
2022/07/08 10:51:24;;;;;;;16.42;8.80;;;;;;;22.22;41.41;100784.75;5119519;27;20045;-54
2022/07/08 10:53:54;;;;;;;22.75;8.27;;;;;;;21.91;42.70;100784.03;5117053;27;20477;-55
2022/07/08 10:56:54;;;;;;;14.60;8.00;;;;;;;22.26;42.32;100772.13;5105173;28;20027;-55
2022/07/08 10:59:20;;;;;;;;;;;;;;;23.20;41.36;100782.06;5095663;28;20032;-55
2022/07/08 11:01:50;;;;;;;14.98;7.60;;;;;;;24.45;39.15;100787.38;5100094;28;20094;-54
2022/07/08 11:04:39;;;;;;;18.83;6.88;;;;;;;23.73;39.84;100787.50;5113544;27;20044;-54
2022/07/08 11:07:33;;;;;;;12.25;6.88;;;;;;;23.61;41.14;100776.13;5110684;27;20339;-55
2022/07/08 11:10:03;;;;;;;20.92;6.40;;;;;;;24.66;38.84;100787.88;5116730;28;20032;-55
2022/07/08 11:12:30;;;;;;;;;;;;;;;23.53;41.11;100787.72;5122420;28;20449;-56
2022/07/08 11:14:56;;;;;;;17.13;8.10;;;;;;;24.10;39.01;100791.41;5120852;28;19955;-56
2022/07/08 11:17:26;;;;;;;16.58;7.28;;;;;;;23.46;40.66;100783.44;5121937;28;20019;-56